Hlavní strana
METAR-TAF:

METAR-TAF

Letiště :

Springdale, Arkansas, Spojené státy americké

zeměpisná šířka: 36-11N, zeměpisná délka: 094-07W, výška: 412 m

Aktuální stav počasí

Zpráva byla vytvořena před 7 hodinami a 12 minutami, v 02:48 UTC
Východojihovýchodní vítr 6 kt
Teplota 8°C
Vlhkost vzduchu 100%
Tlak 1012 hPa
Viditelnost: 14.5 km
Zataženo ve výšce 700 ft

METAR: KASG 240248Z 11006KT 9SM OVC007 08/08 A2988

Čas: 04:00 (10:00 UTC)


TAF: chybějící

Stav a předpovědi počasí z více než 4 000 letišť (zprávy METAR a TAF).

Červené a žluté tečky na mapě představují dostupné meteorologické stanice.

Když kurzor umístíte na tečku, zobrazí se název stanice.

Pak kliknutím zobrazíte stav a předpověď počasí.

Chcete-li změnit mapu, kliknutím na zelené tlačítko se znaménkem +mapu přiblížíte, kliknutím na zelené tlačítko se znaménkem – mapu oddálíte a kliknutím na zelené šipky přejdete na sousední mapy.


METAR-TAF: